Main page
METAR-TAF:

METAR-TAF

Airports :

La Tontouta International Airport

Nouméa / La Tontouta, New Caledonia

latitude: 22-01S, longitude: 166-13E, elevation: 16 m

Current weather observation

The report was made 11 minutes ago, at 00:00 UTC
Wind 2 kt from variable directions
Temperature 23°C
Humidity 69%
Pressure 1017 hPa
Visibility 10 km or more
no clouds below 1500 m and no cumulonimbus

METAR: NWWW 180000Z AUTO VRB02KT CAVOK 23/17 Q1017 NOSIG

Time: 11:11 (00:11 UTC)

Forecast

The report was made 1 hour and 11 minutes ago, at 23:00 UTC
Forecast valid from 18 at 00 UTC to 18 at 24 UTC
Wind 2 kt from variable directions
Visibility 10 km or more
no clouds below 1500 m and no cumulonimbus
Becoming
from 18 at 00 UTC to 18 at 02 UTC
Wind 8 kt from the Southwest
Becoming
from 18 at 05 UTC to 18 at 07 UTC
Wind 2 kt from variable directions

TAF: NWWW 172300Z 1800/1824 VRB02KT CAVOK BECMG 1800/1802 23008KT BECMG 1805/1807 VRB02KT

Weather observations and forecasts of more than 4000 airports (METAR and TAF reports).

The available stations are represented by yellow and red dots on the map.

Hover mouse over dot to see the name of the station.

Then click to see weather observations and forecasts.

To change the map : click on the green buttons with a black cross to zoom in, on the green button with a dash to zoom out, or on the green arrows for adjacent maps.


METAR-TAF: